sensor_id;sensor_type;location;lat;lon;timestamp;temperature;humidity
16064;DHT22;8136;53.172;8.256;2022-07-21T00:00:42;23.00;99.90
16064;DHT22;8136;53.172;8.256;2022-07-21T00:03:11;22.90;99.90
16064;DHT22;8136;53.172;8.256;2022-07-21T00:05:42;23.00;99.90
16064;DHT22;8136;53.172;8.256;2022-07-21T00:08:23;23.00;99.90
16064;DHT22;8136;53.172;8.256;2022-07-21T00:11:04;23.00;99.90
16064;DHT22;8136;53.172;8.256;2022-07-21T00:16:28;23.00;99.90
16064;DHT22;8136;53.172;8.256;2022-07-21T00:19:22;23.10;99.90
16064;DHT22;8136;53.172;8.256;2022-07-21T00:21:52;23.00;99.90
16064;DHT22;8136;53.172;8.256;2022-07-21T00:24:52;23.10;99.90
16064;DHT22;8136;53.172;8.256;2022-07-21T00:27:22;23.00;99.90
16064;DHT22;8136;53.172;8.256;2022-07-21T00:29:48;23.00;99.90
16064;DHT22;8136;53.172;8.256;2022-07-21T00:32:19;23.10;99.90
16064;DHT22;8136;53.172;8.256;2022-07-21T00:34:48;23.00;99.90
16064;DHT22;8136;53.172;8.256;2022-07-21T00:37:15;23.00;99.90
16064;DHT22;8136;53.172;8.256;2022-07-21T00:39:48;23.00;99.90
16064;DHT22;8136;53.172;8.256;2022-07-21T00:42:21;23.10;99.90
16064;DHT22;8136;53.172;8.256;2022-07-21T00:44:48;23.00;99.90
16064;DHT22;8136;53.172;8.256;2022-07-21T00:47:18;23.00;99.90
16064;DHT22;8136;53.172;8.256;2022-07-21T00:49:45;22.90;99.90
16064;DHT22;8136;53.172;8.256;2022-07-21T00:52:14;22.70;99.90
16064;DHT22;8136;53.172;8.256;2022-07-21T00:54:51;22.60;99.90
16064;DHT22;8136;53.172;8.256;2022-07-21T00:57:19;22.30;99.90
16064;DHT22;8136;53.172;8.256;2022-07-21T00:59:51;21.90;99.90
16064;DHT22;8136;53.172;8.256;2022-07-21T01:02:32;21.40;99.90
16064;DHT22;8136;53.172;8.256;2022-07-21T01:05:09;21.20;99.90
16064;DHT22;8136;53.172;8.256;2022-07-21T01:07:48;21.00;99.90
16064;DHT22;8136;53.172;8.256;2022-07-21T01:10:17;20.80;99.90
16064;DHT22;8136;53.172;8.256;2022-07-21T01:12:49;20.60;99.90
16064;DHT22;8136;53.172;8.256;2022-07-21T01:15:18;20.50;99.90
16064;DHT22;8136;53.172;8.256;2022-07-21T01:17:47;20.40;99.90
16064;DHT22;8136;53.172;8.256;2022-07-21T01:20:18;20.40;99.90
16064;DHT22;8136;53.172;8.256;2022-07-21T01:22:48;20.50;99.90
16064;DHT22;8136;53.172;8.256;2022-07-21T01:25:19;20.50;99.90
16064;DHT22;8136;53.172;8.256;2022-07-21T01:27:49;20.60;99.90
16064;DHT22;8136;53.172;8.256;2022-07-21T01:30:16;20.60;99.90
16064;DHT22;8136;53.172;8.256;2022-07-21T01:32:43;20.50;99.90
16064;DHT22;8136;53.172;8.256;2022-07-21T01:35:12;20.50;99.90
16064;DHT22;8136;53.172;8.256;2022-07-21T01:37:41;20.40;99.90
16064;DHT22;8136;53.172;8.256;2022-07-21T01:40:11;20.40;99.90
16064;DHT22;8136;53.172;8.256;2022-07-21T01:42:55;20.40;99.90
16064;DHT22;8136;53.172;8.256;2022-07-21T01:45:22;20.40;99.90
16064;DHT22;8136;53.172;8.256;2022-07-21T01:47:49;20.40;99.90
16064;DHT22;8136;53.172;8.256;2022-07-21T01:50:17;20.50;99.90
16064;DHT22;8136;53.172;8.256;2022-07-21T01:52:46;20.50;99.90
16064;DHT22;8136;53.172;8.256;2022-07-21T01:55:14;20.60;99.90
16064;DHT22;8136;53.172;8.256;2022-07-21T01:57:41;20.50;99.90
16064;DHT22;8136;53.172;8.256;2022-07-21T02:00:09;20.50;99.90
16064;DHT22;8136;53.172;8.256;2022-07-21T02:02:36;20.50;99.90
16064;DHT22;8136;53.172;8.256;2022-07-21T02:05:03;20.40;99.90
16064;DHT22;8136;53.172;8.256;2022-07-21T02:07:30;20.40;99.90
16064;DHT22;8136;53.172;8.256;2022-07-21T02:09:57;20.30;99.90
16064;DHT22;8136;53.172;8.256;2022-07-21T02:12:25;20.40;99.90
16064;DHT22;8136;53.172;8.256;2022-07-21T02:14:52;20.40;99.90
16064;DHT22;8136;53.172;8.256;2022-07-21T02:17:19;20.40;99.90
16064;DHT22;8136;53.172;8.256;2022-07-21T02:19:46;20.40;99.90
16064;DHT22;8136;53.172;8.256;2022-07-21T02:22:12;20.40;99.90
16064;DHT22;8136;53.172;8.256;2022-07-21T02:24:39;20.40;99.90
16064;DHT22;8136;53.172;8.256;2022-07-21T02:27:06;20.40;99.90
16064;DHT22;8136;53.172;8.256;2022-07-21T02:29:34;20.50;99.90
16064;DHT22;8136;53.172;8.256;2022-07-21T02:32:01;20.50;99.90
16064;DHT22;8136;53.172;8.256;2022-07-21T02:34:28;20.50;99.90
16064;DHT22;8136;53.172;8.256;2022-07-21T02:36:55;20.50;99.90
16064;DHT22;8136;53.172;8.256;2022-07-21T02:39:22;20.60;99.90
16064;DHT22;8136;53.172;8.256;2022-07-21T02:41:49;20.60;99.90
16064;DHT22;8136;53.172;8.256;2022-07-21T02:44:18;20.60;99.90
16064;DHT22;8136;53.172;8.256;2022-07-21T02:46:50;20.60;99.90
16064;DHT22;8136;53.172;8.256;2022-07-21T02:49:40;20.60;99.90
16064;DHT22;8136;53.172;8.256;2022-07-21T02:52:12;20.70;99.90
16064;DHT22;8136;53.172;8.256;2022-07-21T02:54:39;20.70;99.90
16064;DHT22;8136;53.172;8.256;2022-07-21T02:57:17;20.70;99.90
16064;DHT22;8136;53.172;8.256;2022-07-21T02:59:58;20.60;99.90
16064;DHT22;8136;53.172;8.256;2022-07-21T03:02:29;20.70;99.90
16064;DHT22;8136;53.172;8.256;2022-07-21T03:07:47;20.60;99.90
16064;DHT22;8136;53.172;8.256;2022-07-21T03:10:20;20.50;99.90
16064;DHT22;8136;53.172;8.256;2022-07-21T03:12:47;20.60;99.90
16064;DHT22;8136;53.172;8.256;2022-07-21T03:15:20;20.50;99.90
16064;DHT22;8136;53.172;8.256;2022-07-21T03:18:10;20.60;99.90
16064;DHT22;8136;53.172;8.256;2022-07-21T03:20:39;20.60;99.90
16064;DHT22;8136;53.172;8.256;2022-07-21T03:23:07;20.60;99.90
16064;DHT22;8136;53.172;8.256;2022-07-21T03:25:34;20.60;99.90
16064;DHT22;8136;53.172;8.256;2022-07-21T03:28:02;20.60;99.90
16064;DHT22;8136;53.172;8.256;2022-07-21T03:30:31;20.70;99.90
16064;DHT22;8136;53.172;8.256;2022-07-21T03:32:59;20.70;99.90
16064;DHT22;8136;53.172;8.256;2022-07-21T03:35:41;20.70;99.90
16064;DHT22;8136;53.172;8.256;2022-07-21T03:38:14;20.70;99.90
16064;DHT22;8136;53.172;8.256;2022-07-21T03:40:42;20.70;99.90
16064;DHT22;8136;53.172;8.256;2022-07-21T03:43:09;20.80;99.90
16064;DHT22;8136;53.172;8.256;2022-07-21T03:45:36;20.70;99.90
16064;DHT22;8136;53.172;8.256;2022-07-21T03:48:05;20.70;99.90
16064;DHT22;8136;53.172;8.256;2022-07-21T03:50:33;20.60;99.90
16064;DHT22;8136;53.172;8.256;2022-07-21T03:53:08;20.60;99.90
16064;DHT22;8136;53.172;8.256;2022-07-21T03:55:35;20.60;99.90
16064;DHT22;8136;53.172;8.256;2022-07-21T03:58:06;20.70;99.90
16064;DHT22;8136;53.172;8.256;2022-07-21T04:00:39;20.60;99.90
16064;DHT22;8136;53.172;8.256;2022-07-21T04:03:07;20.50;99.90
16064;DHT22;8136;53.172;8.256;2022-07-21T04:05:36;20.50;99.90
16064;DHT22;8136;53.172;8.256;2022-07-21T04:08:08;20.50;99.90
16064;DHT22;8136;53.172;8.256;2022-07-21T04:10:37;20.40;99.90
16064;DHT22;8136;53.172;8.256;2022-07-21T04:13:06;20.40;99.90
16064;DHT22;8136;53.172;8.256;2022-07-21T04:15:35;20.30;99.90
16064;DHT22;8136;53.172;8.256;2022-07-21T04:18:02;20.40;99.90
16064;DHT22;8136;53.172;8.256;2022-07-21T04:20:29;20.50;99.90
16064;DHT22;8136;53.172;8.256;2022-07-21T04:22:56;20.50;99.90
16064;DHT22;8136;53.172;8.256;2022-07-21T04:25:26;20.50;99.90
16064;DHT22;8136;53.172;8.256;2022-07-21T04:27:57;20.50;99.90
16064;DHT22;8136;53.172;8.256;2022-07-21T04:30:24;20.60;99.90
16064;DHT22;8136;53.172;8.256;2022-07-21T04:32:51;20.50;99.90
16064;DHT22;8136;53.172;8.256;2022-07-21T04:35:18;20.50;99.90
16064;DHT22;8136;53.172;8.256;2022-07-21T04:37:49;20.50;99.90
16064;DHT22;8136;53.172;8.256;2022-07-21T04:40:16;20.50;99.90
16064;DHT22;8136;53.172;8.256;2022-07-21T04:42:46;20.50;99.90
16064;DHT22;8136;53.172;8.256;2022-07-21T04:45:15;20.50;99.90
16064;DHT22;8136;53.172;8.256;2022-07-21T04:47:43;20.50;99.90
16064;DHT22;8136;53.172;8.256;2022-07-21T04:53:23;20.50;99.90
16064;DHT22;8136;53.172;8.256;2022-07-21T04:54:23;20.50;99.90
16064;DHT22;8136;53.172;8.256;2022-07-21T04:57:49;20.60;99.90
16064;DHT22;8136;53.172;8.256;2022-07-21T05:04:09;20.60;99.90
16064;DHT22;8136;53.172;8.256;2022-07-21T05:30:46;20.70;99.90
16064;DHT22;8136;53.172;8.256;2022-07-21T05:33:39;20.70;99.90
16064;DHT22;8136;53.172;8.256;2022-07-21T05:36:16;20.70;99.90
16064;DHT22;8136;53.172;8.256;2022-07-21T05:38:44;20.70;99.90
16064;DHT22;8136;53.172;8.256;2022-07-21T05:41:12;20.70;99.90
16064;DHT22;8136;53.172;8.256;2022-07-21T05:43:39;20.70;99.90
16064;DHT22;8136;53.172;8.256;2022-07-21T05:46:07;20.70;99.90
16064;DHT22;8136;53.172;8.256;2022-07-21T05:48:34;20.80;99.90
16064;DHT22;8136;53.172;8.256;2022-07-21T05:51:01;20.80;99.90
16064;DHT22;8136;53.172;8.256;2022-07-21T05:53:28;20.80;99.90
16064;DHT22;8136;53.172;8.256;2022-07-21T05:55:57;20.80;99.90
16064;DHT22;8136;53.172;8.256;2022-07-21T05:58:24;20.80;99.90
16064;DHT22;8136;53.172;8.256;2022-07-21T06:00:51;20.80;99.90
16064;DHT22;8136;53.172;8.256;2022-07-21T06:03:40;20.70;99.90
16064;DHT22;8136;53.172;8.256;2022-07-21T06:06:08;20.60;99.90
16064;DHT22;8136;53.172;8.256;2022-07-21T06:08:40;20.60;99.90
16064;DHT22;8136;53.172;8.256;2022-07-21T06:11:11;20.50;99.90
16064;DHT22;8136;53.172;8.256;2022-07-21T06:13:41;20.50;99.90
16064;DHT22;8136;53.172;8.256;2022-07-21T06:16:14;20.40;99.90
16064;DHT22;8136;53.172;8.256;2022-07-21T06:18:42;20.30;99.90
16064;DHT22;8136;53.172;8.256;2022-07-21T06:21:24;20.20;99.90
16064;DHT22;8136;53.172;8.256;2022-07-21T06:24:02;20.20;99.90
16064;DHT22;8136;53.172;8.256;2022-07-21T06:26:31;20.10;99.90
16064;DHT22;8136;53.172;8.256;2022-07-21T06:29:06;20.10;99.90
16064;DHT22;8136;53.172;8.256;2022-07-21T06:31:40;20.00;99.90
16064;DHT22;8136;53.172;8.256;2022-07-21T06:34:08;20.00;99.90
16064;DHT22;8136;53.172;8.256;2022-07-21T06:36:35;20.00;99.90
16064;DHT22;8136;53.172;8.256;2022-07-21T06:39:02;20.00;99.90
16064;DHT22;8136;53.172;8.256;2022-07-21T06:41:29;20.00;99.90
16064;DHT22;8136;53.172;8.256;2022-07-21T06:43:56;20.00;99.90
16064;DHT22;8136;53.172;8.256;2022-07-21T06:46:28;19.90;99.90
16064;DHT22;8136;53.172;8.256;2022-07-21T06:49:33;19.90;99.90
16064;DHT22;8136;53.172;8.256;2022-07-21T06:52:07;19.90;99.90
16064;DHT22;8136;53.172;8.256;2022-07-21T06:57:45;19.90;99.90
16064;DHT22;8136;53.172;8.256;2022-07-21T07:00:12;19.90;99.90
16064;DHT22;8136;53.172;8.256;2022-07-21T07:02:39;19.90;99.90
16064;DHT22;8136;53.172;8.256;2022-07-21T07:05:08;20.00;99.90
16064;DHT22;8136;53.172;8.256;2022-07-21T07:07:35;20.00;99.90
16064;DHT22;8136;53.172;8.256;2022-07-21T07:10:03;20.00;99.90
16064;DHT22;8136;53.172;8.256;2022-07-21T07:12:34;20.10;99.90
16064;DHT22;8136;53.172;8.256;2022-07-21T07:15:03;20.20;99.90
16064;DHT22;8136;53.172;8.256;2022-07-21T07:17:30;20.30;99.90
16064;DHT22;8136;53.172;8.256;2022-07-21T07:20:15;20.30;99.90
16064;DHT22;8136;53.172;8.256;2022-07-21T07:22:43;20.50;99.90
16064;DHT22;8136;53.172;8.256;2022-07-21T07:25:10;20.50;99.90
16064;DHT22;8136;53.172;8.256;2022-07-21T07:27:37;20.60;99.90
16064;DHT22;8136;53.172;8.256;2022-07-21T07:30:12;20.50;99.90
16064;DHT22;8136;53.172;8.256;2022-07-21T07:32:41;20.60;99.90
16064;DHT22;8136;53.172;8.256;2022-07-21T07:35:09;20.60;99.90
16064;DHT22;8136;53.172;8.256;2022-07-21T07:37:48;20.60;99.90
16064;DHT22;8136;53.172;8.256;2022-07-21T07:40:17;20.70;99.90
16064;DHT22;8136;53.172;8.256;2022-07-21T07:42:49;20.70;99.90
16064;DHT22;8136;53.172;8.256;2022-07-21T07:45:27;20.70;99.90
16064;DHT22;8136;53.172;8.256;2022-07-21T07:47:54;20.70;99.90
16064;DHT22;8136;53.172;8.256;2022-07-21T07:50:32;20.70;99.90
16064;DHT22;8136;53.172;8.256;2022-07-21T07:56:14;20.70;99.90
16064;DHT22;8136;53.172;8.256;2022-07-21T07:58:49;20.70;99.90
16064;DHT22;8136;53.172;8.256;2022-07-21T08:01:17;20.60;99.90
16064;DHT22;8136;53.172;8.256;2022-07-21T08:03:58;20.60;99.90
16064;DHT22;8136;53.172;8.256;2022-07-21T08:06:25;20.50;99.90
16064;DHT22;8136;53.172;8.256;2022-07-21T08:09:00;20.50;99.90
16064;DHT22;8136;53.172;8.256;2022-07-21T08:11:49;20.50;99.90
16064;DHT22;8136;53.172;8.256;2022-07-21T08:14:21;20.50;99.90
16064;DHT22;8136;53.172;8.256;2022-07-21T08:16:52;20.50;99.90
16064;DHT22;8136;53.172;8.256;2022-07-21T08:19:41;20.40;99.90
16064;DHT22;8136;53.172;8.256;2022-07-21T08:22:11;20.40;99.90
16064;DHT22;8136;53.172;8.256;2022-07-21T08:24:38;20.30;99.90
16064;DHT22;8136;53.172;8.256;2022-07-21T08:27:07;20.30;99.90
16064;DHT22;8136;53.172;8.256;2022-07-21T08:29:36;20.40;99.90
16064;DHT22;8136;53.172;8.256;2022-07-21T08:32:12;20.30;99.90
16064;DHT22;8136;53.172;8.256;2022-07-21T08:34:42;20.40;99.90
16064;DHT22;8136;53.172;8.256;2022-07-21T08:37:09;20.40;99.90
16064;DHT22;8136;53.172;8.256;2022-07-21T08:39:38;20.40;99.90
16064;DHT22;8136;53.172;8.256;2022-07-21T08:42:15;20.40;99.90
16064;DHT22;8136;53.172;8.256;2022-07-21T08:44:45;20.40;99.90
16064;DHT22;8136;53.172;8.256;2022-07-21T08:47:12;20.40;99.90
16064;DHT22;8136;53.172;8.256;2022-07-21T08:49:53;20.40;99.90
16064;DHT22;8136;53.172;8.256;2022-07-21T08:52:31;20.40;99.90
16064;DHT22;8136;53.172;8.256;2022-07-21T08:54:58;20.50;99.90
16064;DHT22;8136;53.172;8.256;2022-07-21T08:57:27;20.50;99.90
16064;DHT22;8136;53.172;8.256;2022-07-21T09:00:02;20.50;99.90
16064;DHT22;8136;53.172;8.256;2022-07-21T09:02:32;20.50;99.90
16064;DHT22;8136;53.172;8.256;2022-07-21T09:05:04;20.50;99.90
16064;DHT22;8136;53.172;8.256;2022-07-21T09:07:47;20.50;99.90
16064;DHT22;8136;53.172;8.256;2022-07-21T09:10:23;20.50;99.90
16064;DHT22;8136;53.172;8.256;2022-07-21T09:12:55;20.40;99.90
16064;DHT22;8136;53.172;8.256;2022-07-21T09:15:23;20.50;99.90
16064;DHT22;8136;53.172;8.256;2022-07-21T09:18:05;20.50;99.90
16064;DHT22;8136;53.172;8.256;2022-07-21T09:20:46;20.70;99.90
16064;DHT22;8136;53.172;8.256;2022-07-21T09:23:15;20.70;99.90
16064;DHT22;8136;53.172;8.256;2022-07-21T09:25:48;20.80;99.90
16064;DHT22;8136;53.172;8.256;2022-07-21T09:28:19;20.90;99.90
16064;DHT22;8136;53.172;8.256;2022-07-21T09:31:07;20.80;99.90
16064;DHT22;8136;53.172;8.256;2022-07-21T09:33:39;20.90;99.90
16064;DHT22;8136;53.172;8.256;2022-07-21T09:36:10;20.90;99.90
16064;DHT22;8136;53.172;8.256;2022-07-21T09:38:41;21.00;99.90
16064;DHT22;8136;53.172;8.256;2022-07-21T09:41:10;21.10;99.90
16064;DHT22;8136;53.172;8.256;2022-07-21T09:43:41;21.20;99.90
16064;DHT22;8136;53.172;8.256;2022-07-21T09:46:11;21.30;99.90
16064;DHT22;8136;53.172;8.256;2022-07-21T09:48:42;21.30;99.90
16064;DHT22;8136;53.172;8.256;2022-07-21T09:51:39;21.40;99.90
16064;DHT22;8136;53.172;8.256;2022-07-21T09:55:08;21.40;99.90
16064;DHT22;8136;53.172;8.256;2022-07-21T09:58:00;21.40;99.90
16064;DHT22;8136;53.172;8.256;2022-07-21T10:07:56;21.60;99.90
16064;DHT22;8136;53.172;8.256;2022-07-21T10:12:15;21.80;99.90
16064;DHT22;8136;53.172;8.256;2022-07-21T10:24:17;22.20;99.90
16064;DHT22;8136;53.172;8.256;2022-07-21T10:27:11;22.30;99.90
16064;DHT22;8136;53.172;8.256;2022-07-21T10:30:02;22.40;99.90
16064;DHT22;8136;53.172;8.256;2022-07-21T10:32:49;22.50;99.90
16064;DHT22;8136;53.172;8.256;2022-07-21T10:35:43;22.50;99.90
16064;DHT22;8136;53.172;8.256;2022-07-21T10:39:17;22.60;99.90
16064;DHT22;8136;53.172;8.256;2022-07-21T10:49:09;22.90;99.90
16064;DHT22;8136;53.172;8.256;2022-07-21T11:24:26;23.40;99.90
16064;DHT22;8136;53.172;8.256;2022-07-21T11:26:54;23.40;99.90
16064;DHT22;8136;53.172;8.256;2022-07-21T11:29:22;23.30;99.90
16064;DHT22;8136;53.172;8.256;2022-07-21T11:31:49;23.30;99.90
16064;DHT22;8136;53.172;8.256;2022-07-21T11:34:19;23.20;99.90
16064;DHT22;8136;53.172;8.256;2022-07-21T11:36:46;23.20;99.90
16064;DHT22;8136;53.172;8.256;2022-07-21T11:39:15;23.10;99.90
16064;DHT22;8136;53.172;8.256;2022-07-21T11:41:45;23.10;99.90
16064;DHT22;8136;53.172;8.256;2022-07-21T11:44:22;23.00;99.90
16064;DHT22;8136;53.172;8.256;2022-07-21T11:46:52;23.10;99.90
16064;DHT22;8136;53.172;8.256;2022-07-21T11:49:19;23.10;99.90
16064;DHT22;8136;53.172;8.256;2022-07-21T11:51:52;23.10;99.90
16064;DHT22;8136;53.172;8.256;2022-07-21T11:54:26;23.10;99.90
16064;DHT22;8136;53.172;8.256;2022-07-21T11:56:56;23.20;99.90
16064;DHT22;8136;53.172;8.256;2022-07-21T11:59:23;23.20;99.90
16064;DHT22;8136;53.172;8.256;2022-07-21T12:01:53;23.30;99.90
16064;DHT22;8136;53.172;8.256;2022-07-21T12:04:27;23.30;99.90
16064;DHT22;8136;53.172;8.256;2022-07-21T12:06:54;23.30;99.90
16064;DHT22;8136;53.172;8.256;2022-07-21T12:09:21;23.30;99.90
16064;DHT22;8136;53.172;8.256;2022-07-21T12:11:48;23.40;99.90
16064;DHT22;8136;53.172;8.256;2022-07-21T12:14:16;23.40;99.90
16064;DHT22;8136;53.172;8.256;2022-07-21T12:16:50;23.40;99.90
16064;DHT22;8136;53.172;8.256;2022-07-21T12:19:18;23.40;99.90
16064;DHT22;8136;53.172;8.256;2022-07-21T12:21:46;23.50;99.90
16064;DHT22;8136;53.172;8.256;2022-07-21T12:24:13;23.50;99.90
16064;DHT22;8136;53.172;8.256;2022-07-21T12:26:40;23.60;99.90
16064;DHT22;8136;53.172;8.256;2022-07-21T12:29:07;23.60;99.90
16064;DHT22;8136;53.172;8.256;2022-07-21T12:31:36;23.60;99.90
16064;DHT22;8136;53.172;8.256;2022-07-21T12:34:14;23.70;99.90
16064;DHT22;8136;53.172;8.256;2022-07-21T12:36:44;23.70;99.90
16064;DHT22;8136;53.172;8.256;2022-07-21T12:39:20;23.80;99.90
16064;DHT22;8136;53.172;8.256;2022-07-21T12:42:10;23.90;99.90
16064;DHT22;8136;53.172;8.256;2022-07-21T12:44:44;24.00;99.90
16064;DHT22;8136;53.172;8.256;2022-07-21T12:47:20;24.10;99.90
16064;DHT22;8136;53.172;8.256;2022-07-21T12:49:59;24.20;99.90
16064;DHT22;8136;53.172;8.256;2022-07-21T12:52:28;24.20;99.90
16064;DHT22;8136;53.172;8.256;2022-07-21T12:54:58;24.20;99.90
16064;DHT22;8136;53.172;8.256;2022-07-21T12:57:26;24.20;99.90
16064;DHT22;8136;53.172;8.256;2022-07-21T12:59:54;24.20;99.90
16064;DHT22;8136;53.172;8.256;2022-07-21T13:02:23;24.20;99.90
16064;DHT22;8136;53.172;8.256;2022-07-21T13:04:51;24.30;99.90
16064;DHT22;8136;53.172;8.256;2022-07-21T13:07:18;24.50;99.90
16064;DHT22;8136;53.172;8.256;2022-07-21T13:09:48;24.80;99.90
16064;DHT22;8136;53.172;8.256;2022-07-21T13:12:15;25.10;99.90
16064;DHT22;8136;53.172;8.256;2022-07-21T13:14:42;25.40;99.90
16064;DHT22;8136;53.172;8.256;2022-07-21T13:17:09;25.50;99.90
16064;DHT22;8136;53.172;8.256;2022-07-21T13:19:37;25.70;99.90
16064;DHT22;8136;53.172;8.256;2022-07-21T13:22:23;25.90;99.90
16064;DHT22;8136;53.172;8.256;2022-07-21T13:24:54;26.00;99.90
16064;DHT22;8136;53.172;8.256;2022-07-21T13:27:21;25.90;99.90
16064;DHT22;8136;53.172;8.256;2022-07-21T13:29:48;25.90;99.90
16064;DHT22;8136;53.172;8.256;2022-07-21T13:32:15;25.70;99.90
16064;DHT22;8136;53.172;8.256;2022-07-21T13:34:43;25.40;99.90
16064;DHT22;8136;53.172;8.256;2022-07-21T13:37:10;25.00;99.90
16064;DHT22;8136;53.172;8.256;2022-07-21T13:39:37;24.70;99.90
16064;DHT22;8136;53.172;8.256;2022-07-21T13:42:05;24.30;99.90
16064;DHT22;8136;53.172;8.256;2022-07-21T13:44:32;24.10;99.90
16064;DHT22;8136;53.172;8.256;2022-07-21T13:47:00;24.00;99.90
16064;DHT22;8136;53.172;8.256;2022-07-21T13:49:40;23.90;99.90
16064;DHT22;8136;53.172;8.256;2022-07-21T13:52:08;23.70;99.90
16064;DHT22;8136;53.172;8.256;2022-07-21T13:54:35;23.60;99.90
16064;DHT22;8136;53.172;8.256;2022-07-21T13:57:08;23.50;99.90
16064;DHT22;8136;53.172;8.256;2022-07-21T13:59:35;23.40;99.90
16064;DHT22;8136;53.172;8.256;2022-07-21T14:02:02;23.30;99.90
16064;DHT22;8136;53.172;8.256;2022-07-21T14:04:28;23.20;99.90
16064;DHT22;8136;53.172;8.256;2022-07-21T14:06:55;23.10;99.90
16064;DHT22;8136;53.172;8.256;2022-07-21T14:09:23;23.00;99.90
16064;DHT22;8136;53.172;8.256;2022-07-21T14:11:50;23.00;99.90
16064;DHT22;8136;53.172;8.256;2022-07-21T14:14:18;23.00;99.90
16064;DHT22;8136;53.172;8.256;2022-07-21T14:16:47;23.00;99.90
16064;DHT22;8136;53.172;8.256;2022-07-21T14:19:15;23.00;99.90
16064;DHT22;8136;53.172;8.256;2022-07-21T14:21:44;23.10;99.90
16064;DHT22;8136;53.172;8.256;2022-07-21T14:24:13;23.10;99.90
16064;DHT22;8136;53.172;8.256;2022-07-21T14:26:59;23.00;99.90
16064;DHT22;8136;53.172;8.256;2022-07-21T14:29:26;22.90;99.90
16064;DHT22;8136;53.172;8.256;2022-07-21T14:31:53;22.80;99.90
16064;DHT22;8136;53.172;8.256;2022-07-21T14:34:20;22.70;99.90
16064;DHT22;8136;53.172;8.256;2022-07-21T14:36:47;22.70;99.90
16064;DHT22;8136;53.172;8.256;2022-07-21T14:39:14;22.70;99.90
16064;DHT22;8136;53.172;8.256;2022-07-21T14:41:43;22.60;99.90
16064;DHT22;8136;53.172;8.256;2022-07-21T14:44:14;22.50;99.90
16064;DHT22;8136;53.172;8.256;2022-07-21T14:46:41;22.40;99.90
16064;DHT22;8136;53.172;8.256;2022-07-21T14:49:07;22.40;99.90
16064;DHT22;8136;53.172;8.256;2022-07-21T14:51:35;22.40;99.90
16064;DHT22;8136;53.172;8.256;2022-07-21T14:54:02;22.50;99.90
16064;DHT22;8136;53.172;8.256;2022-07-21T14:56:29;22.50;99.90
16064;DHT22;8136;53.172;8.256;2022-07-21T14:58:56;22.40;99.90
16064;DHT22;8136;53.172;8.256;2022-07-21T15:01:25;22.40;99.90
16064;DHT22;8136;53.172;8.256;2022-07-21T15:03:52;22.50;99.90
16064;DHT22;8136;53.172;8.256;2022-07-21T15:06:19;22.50;99.90
16064;DHT22;8136;53.172;8.256;2022-07-21T15:08:46;22.50;99.90
16064;DHT22;8136;53.172;8.256;2022-07-21T15:11:13;22.60;99.90
16064;DHT22;8136;53.172;8.256;2022-07-21T15:13:42;22.70;99.90
16064;DHT22;8136;53.172;8.256;2022-07-21T15:16:08;22.80;99.90
16064;DHT22;8136;53.172;8.256;2022-07-21T15:18:37;22.90;99.90
16064;DHT22;8136;53.172;8.256;2022-07-21T15:21:03;22.90;99.90
16064;DHT22;8136;53.172;8.256;2022-07-21T15:23:30;22.90;99.90
16064;DHT22;8136;53.172;8.256;2022-07-21T15:25:57;22.90;99.90
16064;DHT22;8136;53.172;8.256;2022-07-21T15:28:25;22.90;99.90
16064;DHT22;8136;53.172;8.256;2022-07-21T15:30:52;22.90;99.90
16064;DHT22;8136;53.172;8.256;2022-07-21T15:33:18;22.90;99.90
16064;DHT22;8136;53.172;8.256;2022-07-21T15:35:56;22.90;99.90
16064;DHT22;8136;53.172;8.256;2022-07-21T15:38:23;22.80;99.90
16064;DHT22;8136;53.172;8.256;2022-07-21T15:40:50;22.80;99.90
16064;DHT22;8136;53.172;8.256;2022-07-21T15:43:18;22.80;99.90
16064;DHT22;8136;53.172;8.256;2022-07-21T15:45:46;22.80;99.90
16064;DHT22;8136;53.172;8.256;2022-07-21T15:48:13;22.90;99.90
16064;DHT22;8136;53.172;8.256;2022-07-21T15:50:40;22.90;99.90
16064;DHT22;8136;53.172;8.256;2022-07-21T15:53:08;22.90;99.90
16064;DHT22;8136;53.172;8.256;2022-07-21T15:55:35;22.80;99.90
16064;DHT22;8136;53.172;8.256;2022-07-21T15:58:02;22.80;99.90
16064;DHT22;8136;53.172;8.256;2022-07-21T16:00:29;22.80;99.90
16064;DHT22;8136;53.172;8.256;2022-07-21T16:02:56;22.80;99.90
16064;DHT22;8136;53.172;8.256;2022-07-21T16:05:25;22.90;99.90
16064;DHT22;8136;53.172;8.256;2022-07-21T16:07:54;22.90;99.90
16064;DHT22;8136;53.172;8.256;2022-07-21T16:10:23;23.10;99.90
16064;DHT22;8136;53.172;8.256;2022-07-21T16:13:06;23.20;99.90
16064;DHT22;8136;53.172;8.256;2022-07-21T16:18:48;23.10;99.90
16064;DHT22;8136;53.172;8.256;2022-07-21T16:21:24;23.20;99.90
16064;DHT22;8136;53.172;8.256;2022-07-21T18:14:47;21.90;99.90
16064;DHT22;8136;53.172;8.256;2022-07-21T18:24:52;21.80;99.90
16064;DHT22;8136;53.172;8.256;2022-07-21T18:31:35;21.80;99.90
16064;DHT22;8136;53.172;8.256;2022-07-21T18:34:43;21.60;99.90
16064;DHT22;8136;53.172;8.256;2022-07-21T18:37:33;21.50;99.90
16064;DHT22;8136;53.172;8.256;2022-07-21T18:40:56;21.40;99.90
16064;DHT22;8136;53.172;8.256;2022-07-21T18:47:17;21.20;99.90
16064;DHT22;8136;53.172;8.256;2022-07-21T18:57:22;21.10;99.90
16064;DHT22;8136;53.172;8.256;2022-07-21T19:00:24;21.10;99.90
16064;DHT22;8136;53.172;8.256;2022-07-21T19:51:41;20.90;99.90
16064;DHT22;8136;53.172;8.256;2022-07-21T20:53:09;20.30;99.90
16064;DHT22;8136;53.172;8.256;2022-07-21T20:56:18;20.20;99.90
16064;DHT22;8136;53.172;8.256;2022-07-21T20:59:31;20.10;99.90
16064;DHT22;8136;53.172;8.256;2022-07-21T21:03:03;20.10;99.90
16064;DHT22;8136;53.172;8.256;2022-07-21T21:06:16;20.00;99.90
16064;DHT22;8136;53.172;8.256;2022-07-21T22:46:31;18.10;99.90
16064;DHT22;8136;53.172;8.256;2022-07-21T22:48:58;18.10;99.90
16064;DHT22;8136;53.172;8.256;2022-07-21T22:51:25;18.10;99.90
16064;DHT22;8136;53.172;8.256;2022-07-21T22:53:54;18.00;99.90
16064;DHT22;8136;53.172;8.256;2022-07-21T22:56:30;17.90;99.90
16064;DHT22;8136;53.172;8.256;2022-07-21T22:58:58;17.90;99.90
16064;DHT22;8136;53.172;8.256;2022-07-21T23:01:25;18.00;99.90
16064;DHT22;8136;53.172;8.256;2022-07-21T23:03:53;18.00;99.90
16064;DHT22;8136;53.172;8.256;2022-07-21T23:06:20;18.00;99.90
16064;DHT22;8136;53.172;8.256;2022-07-21T23:08:47;18.00;99.90
16064;DHT22;8136;53.172;8.256;2022-07-21T23:11:15;17.90;99.90
16064;DHT22;8136;53.172;8.256;2022-07-21T23:13:42;17.90;99.90
16064;DHT22;8136;53.172;8.256;2022-07-21T23:16:09;17.90;99.90
16064;DHT22;8136;53.172;8.256;2022-07-21T23:18:36;17.80;99.90
16064;DHT22;8136;53.172;8.256;2022-07-21T23:21:04;17.90;99.90
16064;DHT22;8136;53.172;8.256;2022-07-21T23:23:31;17.80;99.90
16064;DHT22;8136;53.172;8.256;2022-07-21T23:25:58;17.80;99.90
16064;DHT22;8136;53.172;8.256;2022-07-21T23:28:25;17.80;99.90
16064;DHT22;8136;53.172;8.256;2022-07-21T23:30:52;17.80;99.90
16064;DHT22;8136;53.172;8.256;2022-07-21T23:33:23;17.70;99.90
16064;DHT22;8136;53.172;8.256;2022-07-21T23:35:50;17.70;99.90
16064;DHT22;8136;53.172;8.256;2022-07-21T23:38:18;17.70;99.90